createdAt,value
2023-05-14T00:00:51.942Z,21.05
2023-05-14T00:01:51.942Z,21.04
2023-05-14T00:02:52.003Z,21.03
2023-05-14T00:03:51.960Z,21.01
2023-05-14T00:04:51.841Z,21.00
2023-05-14T00:05:52.812Z,20.99
2023-05-14T00:06:51.855Z,20.97
2023-05-14T00:07:51.833Z,20.96
2023-05-14T00:08:51.935Z,20.95
2023-05-14T00:09:51.801Z,20.94
2023-05-14T00:10:51.826Z,20.93
2023-05-14T00:11:52.706Z,20.93
2023-05-14T00:12:51.781Z,20.92
2023-05-14T00:13:51.718Z,20.91
2023-05-14T00:14:51.764Z,20.91
2023-05-14T00:15:51.794Z,20.90
2023-05-14T00:16:51.788Z,20.90
2023-05-14T00:17:52.730Z,20.89
2023-05-14T00:18:51.706Z,20.88
2023-05-14T00:19:51.674Z,20.87
2023-05-14T00:20:51.634Z,20.87
2023-05-14T00:21:51.702Z,20.86
2023-05-14T00:22:52.561Z,20.84
2023-05-14T00:23:51.630Z,20.83
2023-05-14T00:24:51.594Z,20.82
2023-05-14T00:25:51.600Z,20.81
2023-05-14T00:26:51.603Z,20.79
2023-05-14T00:27:52.491Z,20.78
2023-05-14T00:28:51.549Z,20.77
2023-05-14T00:29:51.558Z,20.76
2023-05-14T00:30:51.567Z,20.75
2023-05-14T00:31:51.559Z,20.75
2023-05-14T00:32:52.469Z,20.74
2023-05-14T00:33:51.491Z,20.73
2023-05-14T00:34:51.456Z,20.73
2023-05-14T00:35:51.512Z,20.72
2023-05-14T00:36:51.457Z,20.71
2023-05-14T00:37:51.448Z,20.71
2023-05-14T00:38:57.655Z,20.70
2023-05-14T00:39:51.387Z,20.69
2023-05-14T00:40:51.471Z,20.69
2023-05-14T00:41:51.406Z,20.68
2023-05-14T00:42:51.418Z,20.68
2023-05-14T00:43:52.305Z,20.67
2023-05-14T00:44:51.357Z,20.66
2023-05-14T00:45:51.376Z,20.66
2023-05-14T00:46:51.356Z,20.65
2023-05-14T00:47:51.341Z,20.64
2023-05-14T00:48:52.239Z,20.64
2023-05-14T00:49:51.300Z,20.63
2023-05-14T00:50:51.328Z,20.63
2023-05-14T00:51:51.269Z,20.63
2023-05-14T00:52:51.250Z,20.62
2023-05-14T00:53:52.178Z,20.62
2023-05-14T00:54:51.215Z,20.62
2023-05-14T00:55:51.208Z,20.62
2023-05-14T00:56:51.188Z,20.61
2023-05-14T00:57:51.240Z,20.61
2023-05-14T00:58:52.148Z,20.61
2023-05-14T00:59:51.182Z,20.60
2023-05-14T01:00:51.184Z,20.60
2023-05-14T01:01:51.215Z,20.59
2023-05-14T01:02:51.237Z,20.59
2023-05-14T01:03:51.246Z,20.59
2023-05-14T01:04:52.086Z,20.58
2023-05-14T01:05:51.058Z,20.58
2023-05-14T01:06:51.109Z,20.58
2023-05-14T01:07:51.072Z,20.58
2023-05-14T01:08:51.084Z,20.58
2023-05-14T01:09:51.952Z,20.57
2023-05-14T01:10:51.053Z,20.57
2023-05-14T01:11:51.014Z,20.56
2023-05-14T01:12:51.112Z,20.56
2023-05-14T01:13:51.034Z,20.55
2023-05-14T01:14:50.979Z,20.54
2023-05-14T01:15:51.880Z,20.53
2023-05-14T01:16:51.083Z,20.53
2023-05-14T01:17:51.018Z,20.52
2023-05-14T01:18:51.018Z,20.50
2023-05-14T01:19:50.902Z,20.49
2023-05-14T01:20:51.816Z,20.47
2023-05-14T01:21:50.938Z,20.46
2023-05-14T01:22:50.883Z,20.45
2023-05-14T01:23:50.858Z,20.44
2023-05-14T01:24:50.873Z,20.43
2023-05-14T01:25:50.841Z,20.42
2023-05-14T01:26:51.767Z,20.41
2023-05-14T01:27:50.833Z,20.39
2023-05-14T01:28:50.789Z,20.38
2023-05-14T01:29:50.777Z,20.37
2023-05-14T01:30:50.774Z,20.36
2023-05-14T01:31:51.738Z,20.35
2023-05-14T01:32:50.811Z,20.34
2023-05-14T01:33:50.735Z,20.32
2023-05-14T01:34:50.723Z,20.31
2023-05-14T01:35:50.722Z,20.30
2023-05-14T01:36:50.668Z,20.29
2023-05-14T01:37:51.628Z,20.28
2023-05-14T01:38:50.656Z,20.27
2023-05-14T01:39:50.638Z,20.26
2023-05-14T01:40:50.645Z,20.25
2023-05-14T01:41:50.631Z,20.24
2023-05-14T01:42:50.668Z,20.23
2023-05-14T01:43:51.508Z,20.22
2023-05-14T01:44:50.587Z,20.21
2023-05-14T01:45:50.649Z,20.21
2023-05-14T01:46:50.550Z,20.20
2023-05-14T01:47:50.593Z,20.19
2023-05-14T01:48:50.512Z,20.18
2023-05-14T01:49:51.457Z,20.18
2023-05-14T01:50:50.513Z,20.17
2023-05-14T01:51:50.516Z,20.16
2023-05-14T01:52:50.507Z,20.15
2023-05-14T01:53:50.504Z,20.14
2023-05-14T01:54:50.459Z,20.13
2023-05-14T01:55:51.424Z,20.12
2023-05-14T01:56:50.444Z,20.11
2023-05-14T01:57:50.435Z,20.11
2023-05-14T01:58:50.414Z,20.10
2023-05-14T01:59:50.416Z,20.10
2023-05-14T02:00:51.315Z,20.10
2023-05-14T02:01:50.420Z,20.10
2023-05-14T02:02:50.469Z,20.10
2023-05-14T02:03:50.470Z,20.10
2023-05-14T02:04:50.354Z,20.10
2023-05-14T02:05:51.265Z,20.10
2023-05-14T02:06:50.317Z,20.10
2023-05-14T02:07:50.331Z,20.10
2023-05-14T02:08:50.281Z,20.09
2023-05-14T02:09:50.259Z,20.09
2023-05-14T02:10:51.189Z,20.10
2023-05-14T02:11:50.283Z,20.10
2023-05-14T02:12:50.256Z,20.10
2023-05-14T02:13:50.294Z,20.10
2023-05-14T02:14:50.218Z,20.10
2023-05-14T02:15:50.234Z,20.10
2023-05-14T02:16:51.088Z,20.10
2023-05-14T02:17:50.225Z,20.10
2023-05-14T02:18:50.282Z,20.10
2023-05-14T02:19:50.277Z,20.10
2023-05-14T02:20:50.133Z,20.11
2023-05-14T02:21:51.269Z,20.11
2023-05-14T02:22:50.080Z,20.12
2023-05-14T02:23:50.172Z,20.13
2023-05-14T02:24:50.114Z,20.13
2023-05-14T02:25:50.080Z,20.14
2023-05-14T02:26:50.961Z,20.15
2023-05-14T02:27:50.055Z,20.16
2023-05-14T02:28:50.057Z,20.17
2023-05-14T02:29:50.029Z,20.17
2023-05-14T02:30:49.982Z,20.18
2023-05-14T02:31:50.160Z,20.18
2023-05-14T02:32:51.042Z,20.19
2023-05-14T02:33:50.007Z,20.20
2023-05-14T02:34:50.019Z,20.20
2023-05-14T02:35:49.918Z,20.21
2023-05-14T02:36:49.920Z,20.21
2023-05-14T02:37:49.940Z,20.22
2023-05-14T02:38:50.813Z,20.22
2023-05-14T02:39:49.943Z,20.23
2023-05-14T02:40:49.893Z,20.23
2023-05-14T02:41:49.914Z,20.24
2023-05-14T02:43:35.045Z,21.37
2023-05-14T02:44:35.956Z,20.92
2023-05-14T02:45:35.048Z,20.61
2023-05-14T02:46:35.012Z,20.43
2023-05-14T02:47:37.781Z,20.32
2023-05-14T02:48:34.964Z,20.27
2023-05-14T02:49:34.982Z,20.24
2023-05-14T02:50:35.881Z,20.24
2023-05-14T02:51:34.959Z,20.24
2023-05-14T02:52:34.899Z,20.25
2023-05-14T02:53:34.901Z,20.25
2023-05-14T02:54:34.936Z,20.26
2023-05-14T02:55:35.879Z,20.27
2023-05-14T02:56:34.942Z,20.28
2023-05-14T02:57:34.869Z,20.29
2023-05-14T02:58:34.886Z,20.30
2023-05-14T02:59:34.859Z,20.31
2023-05-14T03:00:34.861Z,20.32
2023-05-14T03:01:34.793Z,20.33
2023-05-14T03:02:34.943Z,20.33
2023-05-14T03:03:34.802Z,20.34
2023-05-14T03:04:34.747Z,20.34
2023-05-14T03:05:34.760Z,20.35
2023-05-14T03:06:35.646Z,20.35
2023-05-14T03:07:34.737Z,20.36
2023-05-14T03:08:34.717Z,20.36
2023-05-14T03:09:37.376Z,20.36
2023-05-14T03:10:34.663Z,20.36
2023-05-14T03:11:35.640Z,20.36
2023-05-14T03:12:34.664Z,20.36
2023-05-14T03:13:34.731Z,20.36
2023-05-14T03:14:34.675Z,20.35
2023-05-14T03:15:34.636Z,20.35
2023-05-14T03:16:35.608Z,20.35
2023-05-14T03:17:34.671Z,20.34
2023-05-14T03:18:34.610Z,20.34
2023-05-14T03:19:34.589Z,20.33
2023-05-14T03:20:34.589Z,20.33
2023-05-14T03:21:35.524Z,20.32
2023-05-14T03:22:34.556Z,20.32
2023-05-14T03:23:34.595Z,20.32
2023-05-14T03:24:34.494Z,20.32
2023-05-14T03:25:34.555Z,20.32
2023-05-14T03:26:34.474Z,20.31
2023-05-14T03:27:35.420Z,20.31
2023-05-14T03:28:34.439Z,20.31
2023-05-14T03:29:34.545Z,20.31
2023-05-14T03:30:34.538Z,20.31
2023-05-14T03:31:34.556Z,20.31
2023-05-14T03:32:34.396Z,20.31
2023-05-14T03:33:35.945Z,20.31
2023-05-14T03:34:34.390Z,20.32
2023-05-14T03:35:34.384Z,20.32
2023-05-14T03:36:34.377Z,20.32
2023-05-14T03:37:34.375Z,20.33
2023-05-14T03:38:35.259Z,20.34
2023-05-14T03:39:34.332Z,20.34
2023-05-14T03:40:34.313Z,20.35
2023-05-14T03:41:34.338Z,20.36
2023-05-14T03:42:34.292Z,20.37
2023-05-14T03:43:34.261Z,20.38
2023-05-14T03:44:35.187Z,20.38
2023-05-14T03:45:34.269Z,20.39
2023-05-14T03:46:34.254Z,20.40
2023-05-14T03:47:34.270Z,20.41
2023-05-14T03:48:34.217Z,20.42
2023-05-14T03:49:35.125Z,20.44
2023-05-14T03:50:34.247Z,20.45
2023-05-14T03:51:34.157Z,20.47
2023-05-14T03:52:35.344Z,20.49
2023-05-14T03:53:34.133Z,20.50
2023-05-14T03:54:34.168Z,20.51
2023-05-14T03:55:35.045Z,20.51
2023-05-14T03:56:34.207Z,20.51
2023-05-14T03:57:34.116Z,20.51
2023-05-14T03:58:34.092Z,20.50
2023-05-14T03:59:34.073Z,20.49
2023-05-14T04:00:34.115Z,20.47
2023-05-14T04:01:34.969Z,20.45
2023-05-14T04:02:34.357Z,20.43
2023-05-14T04:03:34.154Z,20.40
2023-05-14T04:04:34.061Z,20.38
2023-05-14T04:05:34.061Z,20.35
2023-05-14T04:06:34.948Z,20.33
2023-05-14T04:07:34.008Z,20.30
2023-05-14T04:08:33.949Z,20.27
2023-05-14T04:09:34.013Z,20.25
2023-05-14T04:10:33.948Z,20.23
2023-05-14T04:11:33.949Z,20.21
2023-05-14T04:12:35.260Z,20.19
2023-05-14T04:13:33.890Z,20.18
2023-05-14T04:14:33.862Z,20.16
2023-05-14T04:15:33.930Z,20.15
2023-05-14T04:16:33.900Z,20.13
2023-05-14T04:17:35.158Z,20.12
2023-05-14T04:18:34.020Z,20.11
2023-05-14T04:19:33.818Z,20.10
2023-05-14T04:20:33.781Z,20.09
2023-05-14T04:21:33.847Z,20.08
2023-05-14T04:22:34.787Z,20.07
2023-05-14T04:23:33.847Z,20.06
2023-05-14T04:24:33.795Z,20.05
2023-05-14T04:25:33.795Z,20.05
2023-05-14T04:26:33.804Z,20.04
2023-05-14T04:27:34.673Z,20.04
2023-05-14T04:28:33.672Z,20.03
2023-05-14T04:29:33.681Z,20.03
2023-05-14T04:30:33.654Z,20.02
2023-05-14T04:31:33.711Z,20.02
2023-05-14T04:32:33.747Z,20.01
2023-05-14T04:33:34.620Z,20.01
2023-05-14T04:34:33.611Z,20.00
2023-05-14T04:35:33.580Z,20.00
2023-05-14T04:36:33.642Z,19.99
2023-05-14T04:37:33.661Z,19.98
2023-05-14T04:38:33.563Z,19.97
2023-05-14T04:39:34.538Z,19.97
2023-05-14T04:40:33.534Z,19.96
2023-05-14T04:41:33.529Z,19.96
2023-05-14T04:42:33.566Z,19.95
2023-05-14T04:43:33.518Z,19.94
2023-05-14T04:44:34.460Z,19.94
2023-05-14T04:45:34.267Z,19.93
2023-05-14T04:46:33.563Z,19.92
2023-05-14T04:47:33.634Z,19.91
2023-05-14T04:48:33.467Z,19.90
2023-05-14T04:49:33.467Z,19.89
2023-05-14T04:50:34.331Z,19.88
2023-05-14T04:51:33.457Z,19.88
2023-05-14T04:52:33.448Z,19.87
2023-05-14T04:53:33.379Z,19.86
2023-05-14T04:54:33.423Z,19.85
2023-05-14T04:55:33.337Z,19.84
2023-05-14T04:56:34.266Z,19.83
2023-05-14T04:57:33.328Z,19.83
2023-05-14T04:58:35.126Z,19.82
2023-05-14T04:59:33.287Z,19.82
2023-05-14T05:00:33.349Z,19.82
2023-05-14T05:01:33.376Z,19.81
2023-05-14T05:02:34.269Z,19.81
2023-05-14T05:03:33.419Z,19.81
2023-05-14T05:04:33.258Z,19.81
2023-05-14T05:05:33.317Z,19.81
2023-05-14T05:06:33.268Z,19.81
2023-05-14T05:07:33.188Z,19.82
2023-05-14T05:08:34.218Z,19.82
2023-05-14T05:09:33.194Z,19.82
2023-05-14T05:10:33.223Z,19.83
2023-05-14T05:11:33.214Z,19.84
2023-05-14T05:12:33.206Z,19.85
2023-05-14T05:13:34.268Z,19.85
2023-05-14T05:14:33.199Z,19.86
2023-05-14T05:15:33.203Z,19.87
2023-05-14T05:16:33.260Z,19.88
2023-05-14T05:17:33.118Z,19.88
2023-05-14T05:18:34.651Z,19.89
2023-05-14T05:19:43.227Z,19.90
2023-05-14T05:20:34.563Z,19.91
2023-05-14T05:21:33.025Z,19.92
2023-05-14T05:22:33.162Z,19.92
2023-05-14T05:23:33.916Z,19.92
2023-05-14T05:24:32.983Z,19.92
2023-05-14T05:25:33.009Z,19.92
2023-05-14T05:26:33.019Z,19.92
2023-05-14T05:27:32.931Z,19.92
2023-05-14T05:28:33.170Z,19.92
2023-05-14T05:29:33.842Z,19.92
2023-05-14T05:30:32.883Z,19.92
2023-05-14T05:31:32.997Z,19.92
2023-05-14T05:32:33.247Z,19.92
2023-05-14T05:33:32.937Z,19.93
2023-05-14T05:34:33.759Z,19.94
2023-05-14T05:35:32.833Z,19.95
2023-05-14T05:36:32.876Z,19.96
2023-05-14T05:37:33.769Z,19.97
2023-05-14T05:38:32.838Z,19.98
2023-05-14T05:39:32.798Z,20.00
2023-05-14T05:40:33.708Z,20.01
2023-05-14T05:41:32.764Z,20.03
2023-05-14T05:42:32.738Z,20.05
2023-05-14T05:43:32.730Z,20.07
2023-05-14T05:44:32.716Z,20.09
2023-05-14T05:45:32.720Z,20.10
2023-05-14T05:46:33.627Z,20.11
2023-05-14T05:47:32.680Z,20.12
2023-05-14T05:48:32.698Z,20.14
2023-05-14T05:49:32.642Z,20.15
2023-05-14T05:50:32.655Z,20.17
2023-05-14T05:51:33.580Z,20.19
2023-05-14T05:52:32.642Z,20.22
2023-05-14T05:53:32.590Z,20.25
2023-05-14T05:54:32.582Z,20.28
2023-05-14T05:55:32.773Z,20.30
2023-05-14T05:56:33.550Z,20.32
2023-05-14T05:57:32.671Z,20.33
2023-05-14T05:58:32.521Z,20.33
2023-05-14T05:59:32.581Z,20.34
2023-05-14T06:00:32.641Z,20.34
2023-05-14T06:01:32.715Z,20.35
2023-05-14T06:02:33.668Z,20.36
2023-05-14T06:03:32.492Z,20.37
2023-05-14T06:04:32.541Z,20.39
2023-05-14T06:05:32.566Z,20.40
2023-05-14T06:06:32.432Z,20.41
2023-05-14T06:07:33.346Z,20.42
2023-05-14T06:08:32.394Z,20.42
2023-05-14T06:09:32.401Z,20.43
2023-05-14T06:10:32.600Z,20.45
2023-05-14T06:11:32.388Z,20.46
2023-05-14T06:12:32.406Z,20.48
2023-05-14T06:13:33.436Z,20.50
2023-05-14T06:14:32.321Z,20.53
2023-05-14T06:15:32.412Z,20.57
2023-05-14T06:16:32.461Z,20.61
2023-05-14T06:17:32.306Z,20.64
2023-05-14T06:18:33.279Z,20.68
2023-05-14T06:19:32.314Z,20.71
2023-05-14T06:20:32.409Z,20.73
2023-05-14T06:21:32.420Z,20.76
2023-05-14T06:22:32.306Z,20.79
2023-05-14T06:23:32.319Z,20.82
2023-05-14T06:24:38.556Z,20.85
2023-05-14T06:25:32.184Z,20.89
2023-05-14T06:26:32.297Z,20.93
2023-05-14T06:27:32.260Z,20.96
2023-05-14T06:28:32.368Z,20.99
2023-05-14T06:29:33.132Z,21.03
2023-05-14T06:30:32.127Z,21.07
2023-05-14T06:31:32.138Z,21.12
2023-05-14T06:32:32.388Z,21.17
2023-05-14T06:33:32.188Z,21.23
2023-05-14T06:34:32.055Z,21.29
2023-05-14T06:35:33.109Z,21.36
2023-05-14T06:36:32.057Z,21.44
2023-05-14T06:37:32.044Z,21.53
2023-05-14T06:38:32.185Z,21.62
2023-05-14T06:39:32.863Z,21.72
2023-05-14T06:40:32.987Z,21.82
2023-05-14T06:41:32.029Z,21.92
2023-05-14T06:42:32.087Z,22.02
2023-05-14T06:43:32.003Z,22.12
2023-05-14T06:44:32.121Z,22.21
2023-05-14T06:45:33.299Z,22.30
2023-05-14T06:46:32.915Z,22.39
2023-05-14T06:47:31.972Z,22.46
2023-05-14T06:48:31.966Z,22.53
2023-05-14T06:49:31.994Z,22.61
2023-05-14T06:50:31.863Z,22.70
2023-05-14T06:51:32.873Z,22.79
2023-05-14T06:52:31.855Z,22.88
2023-05-14T06:53:31.820Z,22.96
2023-05-14T06:54:32.798Z,23.03
2023-05-14T06:55:31.845Z,23.08
2023-05-14T06:56:32.835Z,23.10
2023-05-14T06:57:31.800Z,23.11
2023-05-14T06:58:32.744Z,23.13
2023-05-14T06:59:31.827Z,23.17
2023-05-14T07:00:31.733Z,23.23
2023-05-14T07:01:31.819Z,23.30
2023-05-14T07:02:32.730Z,23.38
2023-05-14T07:03:31.732Z,23.45
2023-05-14T07:04:31.774Z,23.51
2023-05-14T07:05:31.690Z,23.55
2023-05-14T07:06:31.693Z,23.58
2023-05-14T07:07:31.716Z,23.60
2023-05-14T07:08:32.599Z,23.63
2023-05-14T07:09:31.711Z,23.67
2023-05-14T07:10:31.667Z,23.71
2023-05-14T07:11:31.600Z,23.76
2023-05-14T07:12:31.643Z,23.80
2023-05-14T07:13:32.607Z,23.85
2023-05-14T07:14:31.592Z,23.91
2023-05-14T07:15:31.577Z,23.98
2023-05-14T07:16:31.533Z,24.04
2023-05-14T07:17:31.558Z,24.10
2023-05-14T07:18:31.577Z,24.14
2023-05-14T07:19:32.416Z,24.17
2023-05-14T07:20:31.555Z,24.17
2023-05-14T07:21:31.511Z,24.18
2023-05-14T07:22:31.499Z,24.20
2023-05-14T07:23:31.611Z,24.26
2023-05-14T07:24:31.452Z,24.34
2023-05-14T07:25:32.398Z,24.41
2023-05-14T07:26:31.470Z,24.47
2023-05-14T07:27:31.446Z,24.52
2023-05-14T07:28:31.416Z,24.57
2023-05-14T07:29:31.405Z,24.63
2023-05-14T07:30:31.479Z,24.68
2023-05-14T07:31:32.334Z,24.72
2023-05-14T07:32:35.785Z,24.73
2023-05-14T07:33:31.349Z,24.74
2023-05-14T07:34:31.353Z,24.72
2023-05-14T07:35:31.402Z,24.71
2023-05-14T07:36:31.373Z,24.72
2023-05-14T07:37:32.250Z,24.73
2023-05-14T07:38:32.228Z,24.74
2023-05-14T07:39:31.323Z,24.78
2023-05-14T07:40:31.495Z,24.84
2023-05-14T07:41:31.328Z,24.90
2023-05-14T07:42:36.472Z,24.95
2023-05-14T07:43:33.737Z,24.98
2023-05-14T07:44:31.217Z,24.99
2023-05-14T07:45:31.169Z,25.04
2023-05-14T07:46:31.219Z,25.11
2023-05-14T07:47:31.204Z,25.18
2023-05-14T07:48:32.184Z,25.26
2023-05-14T07:49:32.112Z,25.37
2023-05-14T07:50:31.112Z,25.49
2023-05-14T07:51:31.108Z,25.62
2023-05-14T07:52:31.269Z,25.75
2023-05-14T07:53:31.119Z,25.87
2023-05-14T07:54:31.062Z,25.98
2023-05-14T07:55:37.329Z,26.10
2023-05-14T07:56:31.077Z,26.20
2023-05-14T07:57:31.017Z,26.29
2023-05-14T07:58:31.114Z,26.36
2023-05-14T07:59:31.022Z,26.43
2023-05-14T08:00:31.049Z,26.49
2023-05-14T08:01:31.953Z,26.55
2023-05-14T08:02:31.400Z,26.60
2023-05-14T08:03:31.017Z,26.67
2023-05-14T08:04:30.995Z,26.74
2023-05-14T08:05:30.970Z,26.82
2023-05-14T08:06:31.844Z,26.92
2023-05-14T08:07:30.901Z,27.02
2023-05-14T08:08:30.868Z,27.13
2023-05-14T08:09:30.991Z,27.24
2023-05-14T08:10:31.074Z,27.35
2023-05-14T08:11:31.910Z,27.46
2023-05-14T08:12:31.112Z,27.57
2023-05-14T08:13:30.873Z,27.69
2023-05-14T08:14:30.896Z,27.81
2023-05-14T08:15:30.886Z,27.93
2023-05-14T08:16:31.143Z,28.04
2023-05-14T08:17:31.811Z,28.14
2023-05-14T08:18:30.855Z,28.24
2023-05-14T08:19:30.825Z,28.33
2023-05-14T08:20:31.066Z,28.43
2023-05-14T08:21:31.734Z,28.53
2023-05-14T08:22:31.805Z,28.63
2023-05-14T08:23:30.738Z,28.72
2023-05-14T08:24:30.783Z,28.79
2023-05-14T08:25:30.697Z,28.84
2023-05-14T08:26:30.698Z,28.87
2023-05-14T08:27:31.628Z,28.91
2023-05-14T08:28:30.731Z,28.95
2023-05-14T08:29:30.638Z,29.01
2023-05-14T08:30:30.644Z,29.09
2023-05-14T08:31:30.742Z,29.16
2023-05-14T08:32:30.586Z,29.24
2023-05-14T08:33:31.510Z,29.32
2023-05-14T08:34:30.571Z,29.40
2023-05-14T08:35:30.586Z,29.48
2023-05-14T08:36:30.554Z,29.52
2023-05-14T08:37:30.529Z,29.53
2023-05-14T08:38:31.490Z,29.51
2023-05-14T08:39:30.526Z,29.46
2023-05-14T08:40:30.506Z,29.41
2023-05-14T08:41:30.478Z,29.36
2023-05-14T08:42:30.462Z,29.33
2023-05-14T08:43:31.379Z,29.34
2023-05-14T08:44:30.497Z,29.39
2023-05-14T08:45:30.503Z,29.45
2023-05-14T08:46:30.429Z,29.51
2023-05-14T08:47:30.456Z,29.53
2023-05-14T08:48:31.420Z,29.52
2023-05-14T08:49:30.414Z,29.49
2023-05-14T08:50:30.829Z,29.47
2023-05-14T08:51:30.354Z,29.49
2023-05-14T08:52:30.309Z,29.51
2023-05-14T08:53:31.268Z,29.52
2023-05-14T08:54:31.225Z,29.55
2023-05-14T08:55:30.333Z,29.59
2023-05-14T08:56:30.290Z,29.66
2023-05-14T08:57:30.304Z,29.77
2023-05-14T08:58:30.253Z,29.91
2023-05-14T08:59:31.238Z,30.09
2023-05-14T09:00:30.222Z,30.25
2023-05-14T09:01:30.301Z,30.39
2023-05-14T09:02:30.209Z,30.50
2023-05-14T09:03:30.229Z,30.59
2023-05-14T09:04:30.215Z,30.67
2023-05-14T09:05:31.069Z,30.74
2023-05-14T09:06:30.151Z,30.83
2023-05-14T09:07:30.174Z,30.93
2023-05-14T09:08:30.140Z,31.04
2023-05-14T09:09:30.125Z,31.16
2023-05-14T09:10:30.154Z,31.29
2023-05-14T09:11:31.010Z,31.41
2023-05-14T09:12:30.108Z,31.56
2023-05-14T09:13:30.079Z,31.73
2023-05-14T09:14:30.061Z,31.92
2023-05-14T09:15:30.087Z,32.13
2023-05-14T09:16:30.988Z,32.34
2023-05-14T09:17:30.078Z,32.52
2023-05-14T09:18:30.037Z,32.63
2023-05-14T09:19:29.995Z,32.71
2023-05-14T09:20:30.000Z,32.79
2023-05-14T09:21:32.154Z,32.86
2023-05-14T09:22:30.909Z,32.95
2023-05-14T09:23:29.936Z,33.06
2023-05-14T09:24:29.969Z,33.17
2023-05-14T09:25:29.908Z,33.25
2023-05-14T09:26:29.898Z,33.26
2023-05-14T09:27:30.875Z,33.19
2023-05-14T09:28:29.887Z,33.09
2023-05-14T09:29:29.877Z,33.03
2023-05-14T09:30:29.833Z,32.98
2023-05-14T09:31:29.869Z,32.95
2023-05-14T09:32:30.851Z,32.91
2023-05-14T09:33:29.877Z,32.86
2023-05-14T09:34:29.889Z,32.80
2023-05-14T09:35:29.799Z,32.75
2023-05-14T09:36:29.807Z,32.71
2023-05-14T09:37:30.777Z,32.69
2023-05-14T09:38:29.768Z,32.68
2023-05-14T09:39:29.833Z,32.69
2023-05-14T09:40:29.957Z,32.71
2023-05-14T09:41:29.795Z,32.73
2023-05-14T09:42:30.622Z,32.74
2023-05-14T09:43:29.715Z,32.75
2023-05-14T09:44:29.702Z,32.76
2023-05-14T09:45:29.667Z,32.79
2023-05-14T09:46:29.698Z,32.84
2023-05-14T09:47:30.617Z,32.89
2023-05-14T09:48:29.765Z,32.95
2023-05-14T09:49:29.623Z,33.02
2023-05-14T09:50:29.613Z,33.10
2023-05-14T09:51:29.638Z,33.13
2023-05-14T09:52:29.621Z,33.08
2023-05-14T09:53:30.545Z,32.93
2023-05-14T09:54:29.556Z,32.74
2023-05-14T09:55:29.566Z,32.63
2023-05-14T09:56:29.506Z,32.58
2023-05-14T09:57:29.553Z,32.56
2023-05-14T09:58:30.485Z,32.58
2023-05-14T09:59:29.506Z,32.72
2023-05-14T10:00:29.571Z,32.92
2023-05-14T10:01:29.666Z,33.06
2023-05-14T10:02:29.499Z,33.10
2023-05-14T10:03:30.407Z,33.05
2023-05-14T10:04:29.473Z,32.91
2023-05-14T10:05:29.454Z,32.70
2023-05-14T10:06:29.427Z,32.45
2023-05-14T10:07:29.417Z,32.15
2023-05-14T10:08:29.366Z,31.84
2023-05-14T10:09:30.294Z,31.54
2023-05-14T10:10:29.404Z,31.28
2023-05-14T10:11:29.346Z,31.11
2023-05-14T10:12:29.359Z,31.03
2023-05-14T10:13:29.306Z,31.00
2023-05-14T10:14:29.303Z,30.98
2023-05-14T10:15:30.264Z,30.93
2023-05-14T10:16:29.304Z,30.80
2023-05-14T10:17:29.259Z,30.62
2023-05-14T10:18:29.324Z,30.38
2023-05-14T10:19:29.266Z,30.13
2023-05-14T10:20:29.245Z,29.88
2023-05-14T10:21:30.188Z,29.66
2023-05-14T10:22:29.206Z,29.48
2023-05-14T10:23:29.225Z,29.31
2023-05-14T10:24:29.186Z,29.14
2023-05-14T10:25:29.168Z,28.96
2023-05-14T10:26:29.129Z,28.78
2023-05-14T10:27:30.104Z,28.60
2023-05-14T10:28:29.162Z,28.44
2023-05-14T10:29:29.119Z,28.29
2023-05-14T10:30:29.114Z,28.14
2023-05-14T10:31:29.177Z,28.00
2023-05-14T10:32:29.122Z,27.87
2023-05-14T10:33:30.061Z,27.74
2023-05-14T10:34:29.047Z,27.60
2023-05-14T10:35:29.101Z,27.47
2023-05-14T10:36:29.042Z,27.33
2023-05-14T10:37:29.007Z,27.21
2023-05-14T10:38:30.002Z,27.09
2023-05-14T10:39:29.031Z,27.00
2023-05-14T10:40:29.008Z,26.92
2023-05-14T10:41:28.970Z,26.87
2023-05-14T10:42:28.979Z,26.87
2023-05-14T10:43:29.904Z,27.00
2023-05-14T10:44:28.976Z,27.21
2023-05-14T10:45:28.974Z,27.42
2023-05-14T10:46:28.965Z,27.59
2023-05-14T10:47:28.936Z,27.70
2023-05-14T10:48:28.896Z,27.74
2023-05-14T10:49:42.904Z,27.71
2023-05-14T10:50:30.427Z,27.64
2023-05-14T10:51:28.896Z,27.54
2023-05-14T10:52:28.870Z,27.43
2023-05-14T10:53:28.897Z,27.33
2023-05-14T10:54:29.802Z,27.23
2023-05-14T10:55:28.812Z,27.14
2023-05-14T10:56:28.843Z,27.04
2023-05-14T10:57:28.800Z,26.93
2023-05-14T10:58:28.805Z,26.83
2023-05-14T10:59:28.763Z,26.74
2023-05-14T11:00:29.727Z,26.68
2023-05-14T11:01:28.730Z,26.64
2023-05-14T11:02:28.763Z,26.62
2023-05-14T11:03:28.788Z,26.64
2023-05-14T11:04:28.710Z,26.70
2023-05-14T11:05:29.626Z,26.79
2023-05-14T11:06:28.653Z,26.90
2023-05-14T11:07:28.632Z,27.01
2023-05-14T11:08:29.471Z,27.12
2023-05-14T11:09:28.648Z,27.20
2023-05-14T11:10:29.692Z,27.27
2023-05-14T11:11:28.636Z,27.32
2023-05-14T11:12:28.577Z,27.38
2023-05-14T11:13:28.687Z,27.44
2023-05-14T11:14:28.617Z,27.46
2023-05-14T11:15:29.537Z,27.46
2023-05-14T11:16:28.578Z,27.44
2023-05-14T11:17:28.588Z,27.42
2023-05-14T11:18:28.634Z,27.41
2023-05-14T11:19:28.637Z,27.41
2023-05-14T11:20:29.397Z,27.41
2023-05-14T11:21:28.614Z,27.40
2023-05-14T11:22:28.691Z,27.37
2023-05-14T11:23:28.474Z,27.32
2023-05-14T11:24:28.426Z,27.26
2023-05-14T11:25:28.412Z,27.17
2023-05-14T11:26:29.415Z,27.07
2023-05-14T11:27:28.448Z,26.97
2023-05-14T11:28:28.366Z,26.86
2023-05-14T11:29:28.350Z,26.76
2023-05-14T11:30:28.339Z,26.66
2023-05-14T11:31:28.411Z,26.55
2023-05-14T11:32:29.341Z,26.45
2023-05-14T11:33:28.332Z,26.34
2023-05-14T11:34:28.391Z,26.23
2023-05-14T11:35:28.321Z,26.13
2023-05-14T11:36:28.290Z,26.04
2023-05-14T11:37:28.312Z,25.96
2023-05-14T11:38:29.187Z,25.88
2023-05-14T11:39:28.252Z,25.82
2023-05-14T11:40:28.231Z,25.77
2023-05-14T11:41:28.874Z,25.74
2023-05-14T11:42:28.323Z,25.73
2023-05-14T11:43:28.221Z,25.73
2023-05-14T11:44:29.153Z,25.74
2023-05-14T11:45:28.174Z,25.77
2023-05-14T11:46:28.220Z,25.83
2023-05-14T11:47:28.197Z,25.92
2023-05-14T11:48:28.181Z,26.05
2023-05-14T11:49:28.152Z,26.21
2023-05-14T11:50:29.064Z,26.38
2023-05-14T11:51:28.802Z,26.54
2023-05-14T11:52:28.088Z,26.69
2023-05-14T11:53:28.094Z,26.81
2023-05-14T11:54:28.102Z,26.90
2023-05-14T11:55:28.030Z,26.96
2023-05-14T11:56:29.006Z,26.99
2023-05-14T11:57:28.065Z,26.99
2023-05-14T11:58:28.041Z,26.96
2023-05-14T11:59:28.028Z,26.91
2023-05-14T12:00:28.031Z,26.85
2023-05-14T12:01:28.728Z,26.80
2023-05-14T12:02:29.054Z,26.75
2023-05-14T12:03:28.045Z,26.71
2023-05-14T12:04:27.996Z,26.67
2023-05-14T12:05:27.969Z,26.62
2023-05-14T12:06:27.930Z,26.57
2023-05-14T12:07:27.884Z,26.53
2023-05-14T12:08:28.815Z,26.50
2023-05-14T12:09:27.895Z,26.48
2023-05-14T12:10:27.895Z,26.47
2023-05-14T12:11:27.911Z,26.47
2023-05-14T12:12:27.812Z,26.47
2023-05-14T12:13:28.779Z,26.49
2023-05-14T12:14:27.887Z,26.51
2023-05-14T12:15:27.793Z,26.55
2023-05-14T12:16:27.886Z,26.59
2023-05-14T12:17:27.831Z,26.63
2023-05-14T12:18:28.859Z,26.67
2023-05-14T12:19:27.787Z,26.73
2023-05-14T12:20:27.752Z,26.78
2023-05-14T12:21:27.695Z,26.86
2023-05-14T12:22:27.681Z,26.94
2023-05-14T12:23:27.738Z,27.04
2023-05-14T12:24:28.651Z,27.16
2023-05-14T12:25:27.671Z,27.30
2023-05-14T12:26:27.700Z,27.48
2023-05-14T12:27:27.690Z,27.67
2023-05-14T12:28:27.706Z,27.89
2023-05-14T12:29:27.659Z,28.12
2023-05-14T12:30:28.604Z,28.36
2023-05-14T12:31:27.672Z,28.60
2023-05-14T12:32:27.594Z,28.87
2023-05-14T12:33:27.617Z,29.16
2023-05-14T12:34:27.567Z,29.48
2023-05-14T12:35:27.819Z,29.79
2023-05-14T12:36:28.465Z,30.06
2023-05-14T12:37:29.491Z,30.28
2023-05-14T12:38:27.512Z,30.47
2023-05-14T12:39:27.511Z,30.63
2023-05-14T12:40:27.497Z,30.77
2023-05-14T12:41:27.480Z,30.91
2023-05-14T12:42:28.411Z,31.06
2023-05-14T12:43:27.482Z,31.23
2023-05-14T12:44:27.684Z,31.40
2023-05-14T12:45:27.415Z,31.54
2023-05-14T12:46:27.459Z,31.62
2023-05-14T12:47:27.531Z,31.65
2023-05-14T12:48:28.342Z,31.61
2023-05-14T12:49:27.383Z,31.52
2023-05-14T12:50:27.505Z,31.37
2023-05-14T12:51:27.387Z,31.20
2023-05-14T12:52:37.794Z,31.01
2023-05-14T12:53:28.848Z,30.81